Time;durP1;ratioP1;P1;durP2;ratioP2;P2;SDS_P1;SDS_P2;PMS_P1;PMS_P2;Temp;Humidity;BMP_temperature;BMP_pressure;BME280_temperature;BME280_humidity;BME280_pressure;Samples;Min_cycle;Max_cycle;Signal;HPM_P1;HPM_P2
2022/02/07 00:00:56;;;;;;;1.90;0.55;;;;;;;0.36;100.00;99079.44;5014837;28;20080;-78
2022/02/07 00:06:15;;;;;;;2.72;1.15;;;;;;;0.29;100.00;99099.34;5001859;28;20053;-79
2022/02/07 00:08:42;;;;;;;4.20;0.60;;;;;;;0.24;100.00;99105.97;5014267;28;20030;-76
2022/02/07 00:11:07;;;;;;;;;;;;;;;0.29;100.00;99120.34;5014958;28;20284;-80
2022/02/07 00:13:33;;;;;;;5.38;0.80;;;;;;;0.16;100.00;99114.50;4997811;28;20286;-79
2022/02/07 00:15:58;;;;;;;1.73;0.70;;;;;;;0.16;100.00;99125.00;4997502;28;20498;-78
2022/02/07 00:18:26;;;;;;;4.57;0.55;;;;;;;0.15;100.00;99128.59;5029984;28;20053;-81
2022/02/07 00:20:51;;;;;;;1.70;0.60;;;;;;;0.19;100.00;99143.94;5014068;28;20093;-76
2022/02/07 00:23:17;;;;;;;5.35;0.75;;;;;;;0.10;100.00;99130.81;5013354;28;20061;-79
2022/02/07 00:25:43;;;;;;;6.20;1.10;;;;;;;0.06;100.00;99150.41;5013480;28;20052;-80
2022/02/07 00:28:09;;;;;;;;;;;;;;;0.16;100.00;99172.25;5013507;28;20472;-80
2022/02/07 00:30:34;;;;;;;1.13;0.90;;;;;;;0.15;100.00;99179.28;5013123;28;19948;-80
2022/02/07 00:32:59;;;;;;;5.60;0.80;;;;;;;0.07;100.00;99168.66;5012902;28;20044;-79
2022/02/07 00:35:25;;;;;;;9.20;0.98;;;;;;;0.19;100.00;99190.38;5012350;28;20767;-80
2022/02/07 00:37:54;;;;;;;4.50;0.55;;;;;;;0.16;100.00;99193.25;5012503;28;20068;-77
2022/02/07 00:42:57;;;;;;;8.15;1.98;;;;;;;0.08;100.00;99222.78;5012805;28;20579;-80
2022/02/07 00:46:13;;;;;;;3.95;0.93;;;;;;;0.16;100.00;99235.25;5012501;28;20105;-80
2022/02/07 00:48:12;;;;;;;9.00;0.80;;;;;;;0.19;100.00;99245.50;4998163;28;20546;-78
2022/02/07 00:50:40;;;;;;;4.15;0.85;;;;;;;0.22;100.00;99245.22;5012375;28;20622;-79
2022/02/07 00:53:07;;;;;;;3.85;0.60;;;;;;;0.27;100.00;99252.69;5011886;28;20490;-78
2022/02/07 00:55:33;;;;;;;6.97;0.63;;;;;;;0.23;100.00;99252.13;5011286;28;20033;-78
2022/02/07 00:57:59;;;;;;;9.85;1.48;;;;;;;0.25;100.00;99265.94;4995731;28;20045;-80
2022/02/07 01:00:24;;;;;;;13.68;4.13;;;;;;;0.26;100.00;99272.88;5011765;28;20148;-79
2022/02/07 01:02:50;;;;;;;4.90;1.63;;;;;;;0.28;100.00;99285.84;5028649;28;20087;-80
2022/02/07 01:05:16;;;;;;;11.40;0.93;;;;;;;0.24;100.00;99280.03;5011250;28;20021;-78
2022/02/07 01:07:46;;;;;;;12.75;2.55;;;;;;;0.22;100.00;99281.97;5011844;28;20037;-78
2022/02/07 01:10:16;;;;;;;9.23;1.63;;;;;;;0.20;100.00;99294.38;4995818;28;20480;-79
2022/02/07 01:15:59;;;;;;;6.57;1.17;;;;;;;0.29;100.00;99308.53;5018903;28;20065;-80
2022/02/07 01:18:54;;;;;;;3.78;0.70;;;;;;;0.32;100.00;99324.00;5011910;28;20038;-78
2022/02/07 01:49:39;;;;;;;10.60;1.10;;;;;;;0.27;100.00;99403.16;5014996;28;20094;-78
2022/02/07 01:54:38;;;;;;;14.25;2.35;;;;;;;0.29;100.00;99422.22;5015617;28;20121;-77
2022/02/07 01:57:11;;;;;;;13.07;1.20;;;;;;;0.26;100.00;99413.78;5000582;28;20029;-78
2022/02/07 01:59:40;;;;;;;17.30;2.10;;;;;;;0.29;100.00;99434.53;5015716;28;20021;-79
2022/02/07 02:02:07;;;;;;;9.63;2.00;;;;;;;0.24;100.00;99427.03;4999729;28;20051;-80
2022/02/07 02:04:33;;;;;;;12.15;1.23;;;;;;;0.30;100.00;99442.25;5015742;28;20041;-80
2022/02/07 02:07:01;;;;;;;9.75;1.58;;;;;;;0.43;100.00;99454.38;5016455;28;20124;-80
2022/02/07 02:09:28;;;;;;;11.88;1.70;;;;;;;0.40;100.00;99466.81;5001697;28;20087;-77
2022/02/07 02:11:55;;;;;;;11.93;1.67;;;;;;;0.43;100.00;99459.63;5001257;28;20938;-79
2022/02/07 02:17:11;;;;;;;9.70;1.80;;;;;;;0.46;100.00;99477.75;5016978;28;20035;-79
2022/02/07 02:39:04;;;;;;;15.52;1.80;;;;;;;0.67;100.00;99515.34;5032815;28;20033;-79
2022/02/07 02:47:22;;;;;;;13.45;1.60;;;;;;;0.64;100.00;99528.75;4996224;28;20026;-80
2022/02/07 02:50:04;;;;;;;11.20;1.63;;;;;;;0.64;100.00;99539.25;4996738;28;20040;-78
2022/02/07 02:52:31;;;;;;;12.20;2.03;;;;;;;0.73;100.00;99553.41;4980934;28;20069;-78
2022/02/07 02:54:57;;;;;;;11.63;1.42;;;;;;;0.72;100.00;99547.31;4996439;28;20026;-80
2022/02/07 02:57:23;;;;;;;13.55;1.55;;;;;;;0.72;100.00;99563.06;4980608;28;20138;-79
2022/02/07 02:59:48;;;;;;;6.72;1.35;;;;;;;0.67;100.00;99562.63;4980656;28;20077;-77
2022/02/07 03:02:14;;;;;;;;;;;;;;;0.67;100.00;99575.75;4981516;28;20030;-79
2022/02/07 03:04:40;;;;;;;10.82;1.90;;;;;;;0.64;100.00;99586.53;4979508;28;20028;-79
2022/02/07 03:07:05;;;;;;;7.93;1.65;;;;;;;0.68;100.00;99590.56;5012891;28;20038;-77
2022/02/07 03:09:31;;;;;;;10.27;2.10;;;;;;;0.59;100.00;99580.84;4997265;28;20076;-76
2022/02/07 03:11:57;;;;;;;20.63;3.00;;;;;;;0.59;100.00;99588.72;4996939;28;20053;-78
2022/02/07 03:14:36;;;;;;;12.02;1.65;;;;;;;0.62;100.00;99609.47;4980020;28;20030;-79
2022/02/07 03:17:05;;;;;;;7.18;1.08;;;;;;;0.57;100.00;99624.78;4996583;28;20030;-78
2022/02/07 03:19:30;;;;;;;8.02;1.20;;;;;;;0.55;100.00;99627.50;4980400;28;20052;-77
2022/02/07 03:21:58;;;;;;;10.05;1.38;;;;;;;0.49;100.00;99632.44;4997076;28;20030;-79
2022/02/07 03:24:24;;;;;;;11.85;2.03;;;;;;;0.47;100.00;99650.09;4979905;28;20030;-79
2022/02/07 03:27:18;;;;;;;11.03;1.80;;;;;;;0.50;100.00;99665.63;5003169;28;20468;-78
2022/02/07 03:29:50;;;;;;;12.30;1.70;;;;;;;0.50;100.00;99673.50;4996815;28;20295;-80
2022/02/07 03:32:19;;;;;;;13.05;2.55;;;;;;;0.52;100.00;99675.03;4981173;28;20030;-80
2022/02/07 03:34:52;;;;;;;11.30;1.40;;;;;;;0.51;100.00;99683.03;4981284;28;20049;-79
2022/02/07 03:37:19;;;;;;;9.70;1.83;;;;;;;0.40;100.00;99684.75;4980832;28;20038;-80
2022/02/07 03:39:45;;;;;;;9.77;0.90;;;;;;;0.38;100.00;99691.91;4980687;28;20109;-79
2022/02/07 03:42:12;;;;;;;6.18;1.45;;;;;;;0.38;100.00;99697.16;4981076;28;20549;-79
2022/02/07 03:44:41;;;;;;;8.73;1.63;;;;;;;0.41;100.00;99715.28;4981034;28;20108;-77
2022/02/07 03:47:07;;;;;;;7.38;1.42;;;;;;;0.39;100.00;99725.06;4996956;28;20088;-79
2022/02/07 03:49:32;;;;;;;9.25;1.50;;;;;;;0.33;100.00;99733.47;4980848;28;20061;-79
2022/02/07 03:51:58;;;;;;;11.37;2.30;;;;;;;0.26;100.00;99737.53;4981128;28;20137;-78
2022/02/07 03:54:23;;;;;;;10.23;1.20;;;;;;;0.23;100.00;99732.50;4996100;28;20273;-79
2022/02/07 03:56:53;;;;;;;6.82;1.42;;;;;;;0.31;100.00;99759.00;4996994;28;20296;-79
2022/02/07 03:59:18;;;;;;;8.52;2.05;;;;;;;0.24;100.00;99768.31;4996655;28;20036;-79
2022/02/07 04:01:45;;;;;;;10.70;1.70;;;;;;;0.29;100.00;99784.53;4996871;28;20559;-79
2022/02/07 04:04:13;;;;;;;12.70;1.45;;;;;;;0.34;100.00;99790.25;4996928;28;20335;-80
2022/02/07 04:06:38;;;;;;;8.70;1.40;;;;;;;0.32;100.00;99786.91;4997489;28;20033;-78
2022/02/07 04:09:16;;;;;;;17.92;1.42;;;;;;;0.26;100.00;99797.91;4996544;28;20327;-78
2022/02/07 04:11:52;;;;;;;18.00;1.77;;;;;;;0.22;100.00;99817.47;4996909;28;20431;-78
2022/02/07 04:14:23;;;;;;;13.07;2.28;;;;;;;0.20;100.00;99837.75;5014696;28;20084;-78
2022/02/07 04:16:56;;;;;;;13.50;2.30;;;;;;;0.26;100.00;99844.31;4996922;28;20037;-77
2022/02/07 04:19:33;;;;;;;28.48;2.17;;;;;;;0.37;100.00;99858.28;4995793;28;20025;-79
2022/02/07 04:22:00;;;;;;;14.40;2.33;;;;;;;0.37;100.00;99863.53;4979420;28;20029;-78
2022/02/07 04:24:35;;;;;;;;;;;;;;;0.37;100.00;99879.28;4995453;28;20484;-78
2022/02/07 04:27:07;;;;;;;18.13;1.80;;;;;;;0.36;100.00;99877.63;4979711;28;19920;-79
2022/02/07 04:29:33;;;;;;;8.32;1.67;;;;;;;0.30;100.00;99888.59;4972779;28;20042;-76
2022/02/07 04:32:01;;;;;;;11.98;1.23;;;;;;;0.40;100.00;99889.59;4974484;28;20041;-76
2022/02/07 04:34:27;;;;;;;;;;;;;;;0.53;100.00;99899.13;4976586;28;20038;-77
2022/02/07 04:36:56;;;;;;;12.73;2.00;;;;;;;0.75;100.00;99921.94;4976226;28;19911;-78
2022/02/07 04:39:22;;;;;;;11.88;3.30;;;;;;;0.78;100.00;99921.72;4978069;28;20033;-77
2022/02/07 04:41:52;;;;;;;9.57;3.20;;;;;;;0.79;100.00;99920.75;4996233;28;20038;-76
2022/02/07 04:44:24;;;;;;;9.57;1.50;;;;;;;0.73;100.00;99915.97;4993782;28;20033;-78
2022/02/07 04:47:04;;;;;;;8.85;1.13;;;;;;;0.72;100.00;99923.00;4975896;28;20480;-77
2022/02/07 04:52:45;;;;;;;14.00;2.00;;;;;;;0.72;100.00;99930.06;4993076;28;20029;-77
2022/02/07 04:54:55;;;;;;;9.60;1.20;;;;;;;0.73;100.00;99932.56;4984376;28;20077;-79
2022/02/07 04:57:46;;;;;;;13.27;1.45;;;;;;;0.89;100.00;99937.47;4977254;28;20488;-78
2022/02/07 05:13:41;;;;;;;15.02;1.38;;;;;;;0.81;100.00;99930.16;4993092;28;20199;-76
2022/02/07 05:13:50;;;;;;;12.35;1.23;;;;;;;0.85;100.00;99941.28;4990665;28;20030;-77
2022/02/07 05:18:53;;;;;;;8.80;1.45;;;;;;;0.94;100.00;99960.78;4990904;28;20034;-74
2022/02/07 05:21:36;;;;;;;9.18;1.13;;;;;;;0.92;100.00;99974.03;4994144;28;20045;-75
2022/02/07 05:24:10;;;;;;;7.80;1.23;;;;;;;0.88;100.00;99969.13;4995335;28;20069;-75
2022/02/07 05:26:53;;;;;;;12.60;2.58;;;;;;;0.91;100.00;99974.97;4995572;28;20061;-76
2022/02/07 05:29:48;;;;;;;9.95;2.53;;;;;;;1.00;100.00;99987.41;4958800;28;20069;-77
2022/02/07 05:32:33;;;;;;;28.30;2.90;;;;;;;0.98;100.00;99994.59;5012918;28;20569;-76
2022/02/07 05:35:08;;;;;;;9.32;1.00;;;;;;;0.95;100.00;99997.44;4979887;28;20564;-76
2022/02/07 05:37:53;;;;;;;;;;;;;;;1.04;100.00;100004.59;4995379;28;20033;-78
2022/02/07 05:40:52;;;;;;;6.88;1.40;;;;;;;1.01;100.00;100002.22;4990419;28;20039;-77
2022/02/07 05:43:38;;;;;;;5.17;1.10;;;;;;;0.96;100.00;100000.88;4997333;28;20053;-74
2022/02/07 05:46:23;;;;;;;5.50;2.03;;;;;;;0.99;100.00;100011.19;4995190;28;20623;-77
2022/02/07 05:49:07;;;;;;;14.80;1.80;;;;;;;0.99;100.00;100019.06;4997436;28;20129;-77
2022/02/07 05:51:49;;;;;;;11.70;1.48;;;;;;;1.08;100.00;100026.25;4981282;28;20129;-77
2022/02/07 05:54:34;;;;;;;11.88;1.77;;;;;;;1.12;100.00;100032.91;4980799;28;20037;-77
2022/02/07 05:57:18;;;;;;;12.82;2.38;;;;;;;1.08;100.00;100036.75;4997363;28;20068;-77
2022/02/07 05:59:50;;;;;;;15.27;1.80;;;;;;;1.13;100.00;100039.88;4996076;28;20092;-75
2022/02/07 06:02:36;;;;;;;11.40;2.78;;;;;;;1.22;100.00;100048.84;4997728;28;20624;-75
2022/02/07 06:05:08;;;;;;;12.90;2.75;;;;;;;1.21;100.00;100055.88;4979224;28;20511;-77
2022/02/07 06:07:33;;;;;;;20.77;2.47;;;;;;;1.25;100.00;100067.84;4994670;28;20038;-77
2022/02/07 06:09:59;;;;;;;10.68;1.73;;;;;;;1.10;100.00;100074.28;4978090;28;20040;-77
2022/02/07 06:12:25;;;;;;;14.43;2.65;;;;;;;1.15;100.00;100087.91;4978400;28;20074;-74
2022/02/07 06:14:52;;;;;;;10.88;1.70;;;;;;;1.12;100.00;100064.47;4993983;28;20156;-75
2022/02/07 06:17:18;;;;;;;15.93;2.47;;;;;;;1.19;100.00;100076.19;4977913;28;20028;-78
2022/02/07 06:19:44;;;;;;;13.68;3.03;;;;;;;1.24;100.00;100088.97;4994277;28;20029;-76
2022/02/07 06:22:10;;;;;;;18.33;3.78;;;;;;;1.21;100.00;100094.50;4994317;28;20046;-75
2022/02/07 06:24:38;;;;;;;12.90;2.90;;;;;;;1.27;100.00;100108.00;4978180;28;20087;-77
2022/02/07 06:27:04;;;;;;;13.60;2.78;;;;;;;1.30;100.00;100114.00;4994034;28;20112;-76
2022/02/07 06:29:30;;;;;;;20.45;2.47;;;;;;;1.33;100.00;100111.09;4994361;28;20045;-75
2022/02/07 06:31:56;;;;;;;10.32;2.42;;;;;;;1.29;100.00;100114.91;4993282;28;20037;-78
2022/02/07 06:34:21;;;;;;;12.70;2.20;;;;;;;1.26;100.00;100113.38;4993629;28;20036;-77
2022/02/07 06:36:47;;;;;;;19.10;2.75;;;;;;;1.33;100.00;100137.41;4977694;28;20120;-77
2022/02/07 06:39:14;;;;;;;20.00;3.28;;;;;;;1.30;100.00;100145.53;4993990;28;20041;-77
2022/02/07 06:41:43;;;;;;;18.58;1.98;;;;;;;1.40;100.00;100154.41;4977916;28;20029;-77
2022/02/07 06:44:10;;;;;;;14.93;3.13;;;;;;;1.41;100.00;100153.47;4977092;28;20038;-78
2022/02/07 06:46:36;;;;;;;16.58;3.47;;;;;;;1.37;100.00;100155.47;4993692;28;20037;-76
2022/02/07 06:49:02;;;;;;;14.45;2.70;;;;;;;1.45;100.00;100160.13;4977305;28;20075;-76
2022/02/07 06:51:28;;;;;;;20.97;2.80;;;;;;;1.51;100.00;100178.09;4976885;28;20622;-76
2022/02/07 06:53:54;;;;;;;19.70;2.53;;;;;;;1.57;100.00;100185.53;4993293;28;20277;-77
2022/02/07 06:56:23;;;;;;;14.93;2.50;;;;;;;1.43;100.00;100173.44;4977760;28;20040;-78
2022/02/07 06:58:51;;;;;;;22.35;4.85;;;;;;;1.51;100.00;100185.16;4977350;28;20056;-76
2022/02/07 07:01:19;;;;;;;33.90;4.35;;;;;;;1.45;100.00;100175.91;4993157;28;20041;-77
2022/02/07 07:03:46;;;;;;;10.93;3.00;;;;;;;1.64;100.00;100199.88;4977234;28;20201;-76
2022/02/07 07:06:13;;;;;;;22.98;3.15;;;;;;;1.61;100.00;100210.63;4992944;28;20120;-78
2022/02/07 07:08:46;;;;;;;14.77;2.42;;;;;;;1.67;100.00;100196.16;4992642;28;20488;-76
2022/02/07 07:11:15;;;;;;;14.20;2.35;;;;;;;1.65;100.00;100208.59;4992739;28;20033;-78
2022/02/07 07:13:51;;;;;;;24.27;4.90;;;;;;;1.73;100.00;100213.25;4976859;28;20022;-77
2022/02/07 07:18:50;;;;;;;23.88;3.17;;;;;;;1.80;100.00;100222.34;4992822;28;20038;-74
2022/02/07 07:21:16;;;;;;;21.15;3.03;;;;;;;1.82;100.00;100220.44;4975947;28;20053;-76
2022/02/07 07:23:43;;;;;;;15.00;2.55;;;;;;;1.73;100.00;100223.78;4991310;28;20113;-76
2022/02/07 07:26:10;;;;;;;14.00;3.05;;;;;;;1.85;100.00;100221.06;4975469;28;20038;-79
2022/02/07 07:28:38;;;;;;;27.95;3.97;;;;;;;1.94;100.00;100226.56;4991342;28;20060;-76
2022/02/07 07:31:07;;;;;;;21.25;5.40;;;;;;;1.92;100.00;100197.72;4991470;28;20064;-76
2022/02/07 07:33:37;;;;;;;18.35;3.47;;;;;;;2.03;100.00;100207.41;4967915;28;20037;-79
2022/02/07 07:36:04;;;;;;;21.95;4.18;;;;;;;2.20;100.00;100224.50;4991005;28;20045;-77
2022/02/07 07:38:31;;;;;;;24.52;6.63;;;;;;;2.28;100.00;100215.03;4975182;28;20045;-78
2022/02/07 07:40:58;;;;;;;15.93;3.38;;;;;;;2.30;100.00;100221.03;4991037;28;20046;-76
2022/02/07 07:43:32;;;;;;;22.15;3.38;;;;;;;2.41;100.00;100217.56;4975695;28;20472;-77
2022/02/07 07:46:33;;;;;;;27.50;5.63;;;;;;;2.66;100.00;100226.09;4947596;28;20066;-77
2022/02/07 07:49:29;;;;;;;20.85;4.22;;;;;;;2.72;100.00;100209.78;4988449;28;20048;-77
2022/02/07 07:52:11;;;;;;;23.05;6.15;;;;;;;2.80;100.00;100219.72;4991023;28;20033;-76
2022/02/07 08:03:27;;;;;;;22.90;4.93;;;;;;;3.43;96.70;100185.47;4991031;28;20045;-79
2022/02/07 08:06:10;;;;;;;22.02;3.83;;;;;;;3.50;95.48;100191.91;4974708;28;20034;-79
2022/02/07 08:08:44;;;;;;;28.75;5.05;;;;;;;3.39;94.54;100179.59;4991222;28;20730;-79
2022/02/07 08:11:12;;;;;;;24.00;4.70;;;;;;;3.56;94.01;100180.81;4991540;28;20100;-78
2022/02/07 08:13:44;;;;;;;23.58;4.28;;;;;;;3.73;93.53;100196.03;4976685;28;20025;-78
2022/02/07 08:16:17;;;;;;;21.58;5.38;;;;;;;3.83;92.64;100189.97;4993147;28;20497;-77
2022/02/07 08:18:42;;;;;;;27.23;4.50;;;;;;;3.94;91.49;100169.56;4993850;28;20057;-79
2022/02/07 08:21:08;;;;;;;24.53;6.30;;;;;;;4.21;90.80;100179.53;4977737;28;20033;-78
2022/02/07 08:23:35;;;;;;;22.67;4.00;;;;;;;4.39;89.70;100177.06;4977074;28;20076;-78
2022/02/07 08:26:03;;;;;;;27.50;4.88;;;;;;;4.43;88.95;100167.06;4994371;28;20042;-79
2022/02/07 08:28:28;;;;;;;28.45;4.78;;;;;;;4.38;88.04;100162.19;4978614;28;20029;-78
2022/02/07 08:30:54;;;;;;;31.05;6.55;;;;;;;4.35;87.17;100151.03;4978382;28;20578;-78
2022/02/07 08:33:19;;;;;;;31.40;5.27;;;;;;;4.29;86.63;100130.47;4994939;28;20038;-76
2022/02/07 08:35:45;;;;;;;30.63;5.70;;;;;;;4.60;86.78;100173.47;4994750;28;20046;-79
2022/02/07 08:38:10;;;;;;;27.87;4.10;;;;;;;4.74;85.03;100129.94;4979472;28;20109;-77
2022/02/07 08:40:37;;;;;;;27.73;4.87;;;;;;;4.78;84.14;100118.09;4980543;28;20048;-79
2022/02/07 08:43:03;;;;;;;29.55;4.25;;;;;;;4.92;82.74;100098.31;4979804;28;20033;-78
2022/02/07 08:45:29;;;;;;;27.55;5.30;;;;;;;5.59;81.88;100120.25;4980580;28;20021;-79
2022/02/07 08:47:56;;;;;;;33.20;5.18;;;;;;;5.49;80.09;100043.50;4980656;28;20057;-78
2022/02/07 08:50:29;;;;;;;34.85;7.90;;;;;;;5.28;79.28;100025.22;4981428;28;20388;-79
2022/02/07 08:52:57;;;;;;;21.55;4.28;;;;;;;5.34;79.11;100029.94;4981564;28;20042;-78
2022/02/07 08:55:36;;;;;;;40.33;5.63;;;;;;;5.62;77.94;100006.09;4981805;28;20072;-79
2022/02/07 08:58:16;;;;;;;17.42;4.20;;;;;;;6.24;77.41;100057.44;5001619;28;20042;-80
2022/02/07 09:00:53;;;;;;;24.60;5.43;;;;;;;6.68;75.87;100012.41;4986398;28;20033;-80
2022/02/07 09:05:55;;;;;;;28.25;3.97;;;;;;;6.45;72.95;99878.66;5003086;28;20065;-79
2022/02/07 09:08:25;;;;;;;26.00;3.95;;;;;;;6.21;73.00;99869.56;5003089;28;20188;-79
2022/02/07 09:10:52;;;;;;;26.73;3.90;;;;;;;6.67;72.68;99915.25;4987668;28;20068;-79
2022/02/07 09:13:18;;;;;;;17.50;3.55;;;;;;;6.05;72.66;99877.38;5004240;28;20475;-79
2022/02/07 09:16:01;;;;;;;22.50;4.53;;;;;;;5.40;73.69;99890.84;4987029;28;20630;-78
2022/02/07 09:18:26;;;;;;;20.63;4.72;;;;;;;5.46;74.87;100020.81;4987853;28;20101;-79
2022/02/07 09:20:54;;;;;;;25.53;5.33;;;;;;;5.53;74.63;100007.00;4988652;28;20022;-80
2022/02/07 09:23:19;;;;;;;28.42;4.97;;;;;;;4.92;75.02;99961.59;4988707;28;20041;-80
2022/02/07 09:25:45;;;;;;;20.70;4.05;;;;;;;4.62;75.85;100011.06;5004355;28;20052;-80
2022/02/07 09:28:10;;;;;;;27.67;5.23;;;;;;;4.49;76.82;100055.47;4988655;28;20033;-80
2022/02/07 09:30:36;;;;;;;17.93;4.23;;;;;;;4.47;76.97;100083.03;5003330;28;20061;-79
2022/02/07 09:33:01;;;;;;;33.97;7.63;;;;;;;4.81;76.52;100091.34;4982812;28;20045;-80
2022/02/07 09:35:29;;;;;;;24.70;3.57;;;;;;;5.52;74.43;100076.81;4982587;28;20338;-79
2022/02/07 09:37:55;;;;;;;18.52;4.00;;;;;;;6.20;72.65;100018.13;4998978;28;20038;-79
2022/02/07 09:40:21;;;;;;;25.60;3.58;;;;;;;6.61;69.48;99918.53;4983556;28;20041;-80
2022/02/07 09:42:55;;;;;;;21.77;3.97;;;;;;;7.15;68.52;99915.63;4982457;28;20112;-79
2022/02/07 09:45:30;;;;;;;14.55;3.75;;;;;;;7.07;67.79;99876.63;4998944;28;20517;-80
2022/02/07 09:47:57;;;;;;;27.75;5.30;;;;;;;7.11;67.66;99866.50;4982835;28;20038;-80
2022/02/07 09:50:23;;;;;;;37.15;5.25;;;;;;;6.85;69.14;99938.22;4982171;28;20037;-79
2022/02/07 09:52:48;;;;;;;22.17;4.65;;;;;;;6.95;68.87;99910.56;4981992;28;20419;-80
2022/02/07 09:55:14;;;;;;;26.03;4.17;;;;;;;6.71;69.29;99943.09;4997860;28;20041;-80
2022/02/07 09:57:39;;;;;;;29.67;5.23;;;;;;;6.75;70.01;100008.13;4980757;28;20083;-80
2022/02/07 10:00:06;;;;;;;21.20;4.57;;;;;;;7.25;69.56;100032.31;4981381;28;20068;-80
2022/02/07 10:02:44;;;;;;;20.90;4.07;;;;;;;7.19;69.12;100000.09;4997328;28;20037;-80
2022/02/07 10:05:23;;;;;;;30.95;4.60;;;;;;;7.54;68.72;100016.84;4997509;28;20488;-81
2022/02/07 10:08:08;;;;;;;21.35;4.50;;;;;;;6.92;68.30;99879.03;4980065;28;20038;-80
2022/02/07 10:10:50;;;;;;;21.98;3.88;;;;;;;5.63;70.15;99859.47;4986043;28;20041;-80
2022/02/07 10:16:07;;;;;;;28.27;5.20;;;;;;;6.01;72.67;100122.47;5034737;28;20657;-80
2022/02/07 10:18:42;;;;;;;30.20;4.90;;;;;;;6.87;70.51;100114.00;5036100;28;20051;-80
2022/02/07 10:40:27;;;;;;;19.75;3.72;;;;;;;7.38;63.86;99761.84;5027927;28;20048;-81
2022/02/07 10:43:33;;;;;;;21.30;5.45;;;;;;;7.72;63.25;99795.34;5032424;28;20040;-81
2022/02/07 10:46:05;;;;;;;12.07;3.35;;;;;;;7.60;61.98;99692.09;5046886;28;20051;-82
2022/02/07 10:48:44;;;;;;;24.48;4.15;;;;;;;7.14;62.99;99713.06;5031442;28;20037;-80
2022/02/07 10:51:32;;;;;;;21.08;4.15;;;;;;;7.61;62.78;99792.06;5030954;28;20040;-82
2022/02/07 10:54:11;;;;;;;21.83;4.68;;;;;;;7.42;62.96;99762.31;5030607;28;20103;-81
2022/02/07 10:56:42;;;;;;;16.58;3.92;;;;;;;7.87;61.57;99758.31;5030816;28;20056;-81
2022/02/07 10:59:10;;;;;;;19.52;4.57;;;;;;;8.08;59.85;99664.69;5048031;28;20029;-84
2022/02/07 11:02:29;;;;;;;20.50;3.47;;;;;;;7.49;58.97;99514.53;5030485;28;20059;-81
2022/02/07 11:04:45;;;;;;;15.38;3.58;;;;;;;7.90;59.24;99633.88;5046249;28;20072;-81
2022/02/07 11:07:12;;;;;;;19.73;4.40;;;;;;;7.88;58.23;99547.38;5030922;28;20040;-80
2022/02/07 11:10:02;;;;;;;17.98;2.88;;;;;;;7.15;58.72;99462.53;5030105;28;20032;-81
2022/02/07 11:17:58;;;;;;;22.92;3.92;;;;;;;6.71;58.56;99456.84;5040491;28;20085;-80
2022/02/07 11:28:25;;;;;;;20.83;3.65;;;;;;;6.00;60.14;99506.09;5038819;28;20057;-81
2022/02/07 11:30:55;;;;;;;18.90;4.68;;;;;;;6.36;60.10;99595.91;5023736;28;20083;-80
2022/02/07 11:36:26;;;;;;;18.90;4.03;;;;;;;6.49;59.98;99604.22;5011899;28;20046;-81
2022/02/07 11:38:59;;;;;;;27.80;4.60;;;;;;;6.09;59.84;99531.59;5019579;28;20033;-79
2022/02/07 11:41:25;;;;;;;19.98;3.72;;;;;;;5.78;60.05;99502.19;5019185;28;20128;-80
2022/02/07 11:43:50;;;;;;;21.05;3.00;;;;;;;5.78;60.43;99524.19;5037192;28;20072;-79
2022/02/07 11:46:16;;;;;;;23.53;4.37;;;;;;;5.71;60.89;99549.66;5018700;28;20044;-80
2022/02/07 11:48:50;;;;;;;13.85;2.92;;;;;;;5.70;60.55;99542.72;5017339;28;20475;-79
2022/02/07 11:51:18;;;;;;;12.63;3.03;;;;;;;5.78;61.89;99656.63;5013008;28;20061;-80
2022/02/07 11:53:50;;;;;;;28.58;5.75;;;;;;;5.70;61.40;99635.41;5010356;28;20028;-79
2022/02/07 11:56:22;;;;;;;16.27;4.30;;;;;;;5.85;62.02;99678.88;5009040;28;20159;-80
2022/02/07 11:59:16;;;;;;;21.95;3.58;;;;;;;6.94;60.92;99823.97;5051759;28;20440;-80
2022/02/07 12:02:01;;;;;;;22.08;3.63;;;;;;;7.51;59.15;99762.16;5035371;28;20045;-79
2022/02/07 12:04:40;;;;;;;16.38;3.13;;;;;;;7.48;57.52;99603.16;5034786;28;20093;-80
2022/02/07 12:07:06;;;;;;;14.85;2.97;;;;;;;7.64;57.49;99628.84;5035460;28;20052;-79
2022/02/07 12:09:31;;;;;;;24.00;4.30;;;;;;;7.38;58.39;99640.50;5032054;28;20025;-81
2022/02/07 12:11:56;;;;;;;14.97;3.97;;;;;;;6.94;58.61;99587.00;5037186;28;20040;-80
2022/02/07 12:14:36;;;;;;;18.40;3.67;;;;;;;6.63;59.01;99600.09;5007689;28;20041;-81
2022/02/07 12:17:03;;;;;;;17.73;3.00;;;;;;;6.69;60.25;99727.56;4999437;28;20403;-80
2022/02/07 12:19:40;;;;;;;16.98;3.35;;;;;;;7.15;61.44;99913.78;5016264;28;20106;-79
2022/02/07 12:22:18;;;;;;;23.77;4.55;;;;;;;7.48;60.40;99867.91;5014914;28;20569;-80
2022/02/07 12:24:57;;;;;;;18.38;3.22;;;;;;;6.97;60.55;99749.34;5029953;28;20372;-79
2022/02/07 12:27:25;;;;;;;23.17;4.88;;;;;;;6.69;62.00;99859.38;5017229;28;20033;-80
2022/02/07 12:32:36;;;;;;;15.77;3.35;;;;;;;6.97;62.47;99944.91;5022860;28;20033;-79
2022/02/07 12:35:03;;;;;;;17.77;3.97;;;;;;;6.82;62.03;99893.44;5033929;28;20044;-79
2022/02/07 12:37:34;;;;;;;17.30;4.15;;;;;;;6.61;61.88;99831.00;5017279;28;20041;-80
2022/02/07 12:40:04;;;;;;;28.40;3.38;;;;;;;7.44;61.87;100005.50;5001228;28;20033;-80
2022/02/07 12:42:30;;;;;;;14.65;4.07;;;;;;;7.53;61.60;99991.25;5034025;28;20615;-79
2022/02/07 12:44:59;;;;;;;14.18;2.70;;;;;;;7.64;60.38;99926.38;5015097;28;20036;-80
2022/02/07 12:47:25;;;;;;;21.27;3.85;;;;;;;7.90;60.02;99904.97;5013530;28;20042;-81
2022/02/07 12:49:54;;;;;;;17.55;2.95;;;;;;;7.74;59.07;99775.59;5017599;28;20037;-80
2022/02/07 12:52:20;;;;;;;20.15;3.55;;;;;;;7.47;57.98;99665.25;5001881;28;20068;-81
2022/02/07 12:54:45;;;;;;;18.25;3.00;;;;;;;7.79;57.30;99695.38;5002390;28;20497;-80
2022/02/07 12:57:12;;;;;;;19.67;3.57;;;;;;;7.88;56.35;99643.84;5001110;28;20022;-80
2022/02/07 12:59:49;;;;;;;21.55;4.07;;;;;;;8.21;55.97;99641.88;5001093;28;20025;-80
2022/02/07 13:02:15;;;;;;;17.60;3.17;;;;;;;7.98;55.37;99572.75;5018552;28;20710;-80
2022/02/07 13:04:42;;;;;;;10.13;3.20;;;;;;;8.08;55.12;99590.28;5017937;28;20041;-81
2022/02/07 13:07:08;;;;;;;15.52;4.55;;;;;;;8.23;55.63;99657.66;5002421;28;20030;-82
2022/02/07 13:09:42;;;;;;;;;;;;;;;7.66;56.55;99618.06;5020111;28;20120;-81
2022/02/07 13:14:38;;;;;;;17.77;3.78;;;;;;;8.10;57.46;99782.34;5037624;28;20104;-81
2022/02/07 13:17:05;;;;;;;31.58;5.90;;;;;;;7.54;57.49;99703.41;5003707;28;20041;-79
2022/02/07 13:19:36;;;;;;;17.70;4.03;;;;;;;6.76;57.43;99556.13;5002921;28;20408;-81
2022/02/07 13:22:01;;;;;;;20.63;5.05;;;;;;;6.75;58.39;99703.06;5020063;28;20064;-80
2022/02/07 13:24:31;;;;;;;14.90;4.17;;;;;;;6.97;58.91;99812.22;5018658;28;20034;-81
2022/02/07 13:26:58;;;;;;;20.23;3.60;;;;;;;6.89;58.44;99740.56;5004297;28;20225;-80
2022/02/07 13:29:30;;;;;;;21.77;3.22;;;;;;;6.98;58.34;99766.13;5048795;28;20363;-81
2022/02/07 13:32:03;;;;;;;23.23;4.50;;;;;;;6.68;58.83;99738.34;5054353;28;20034;-83
2022/02/07 13:34:32;;;;;;;26.50;5.63;;;;;;;6.33;59.46;99730.44;5025139;28;20112;-80
2022/02/07 13:37:09;;;;;;;19.55;3.72;;;;;;;6.71;60.13;99907.78;5042044;28;20082;-80
2022/02/07 13:39:53;;;;;;;22.55;4.47;;;;;;;6.94;59.63;99902.75;5025446;28;20028;-82
2022/02/07 13:42:25;;;;;;;21.55;5.50;;;;;;;7.15;59.10;99873.97;5027727;28;20037;-81
2022/02/07 13:44:50;;;;;;;25.25;5.20;;;;;;;7.40;58.43;99922.66;5062756;28;20041;-82
2022/02/07 13:47:15;;;;;;;19.07;3.40;;;;;;;7.26;57.50;99782.59;5029696;28;20005;-82
2022/02/07 13:50:09;;;;;;;18.53;4.77;;;;;;;6.55;57.68;99622.13;5046435;28;20436;-81
2022/02/07 13:52:45;;;;;;;15.82;4.20;;;;;;;6.25;58.67;99692.47;5027812;28;20041;-81
2022/02/07 13:55:18;;;;;;;27.75;4.10;;;;;;;6.52;59.45;99814.22;5063527;28;20469;-82
2022/02/07 13:58:02;;;;;;;18.38;4.65;;;;;;;6.74;58.52;99796.91;5047038;28;20076;-81
2022/02/07 14:00:30;;;;;;;16.60;4.25;;;;;;;6.68;58.92;99802.84;5047522;28;20410;-81
2022/02/07 14:03:11;;;;;;;19.35;3.15;;;;;;;7.11;59.26;99930.19;5031444;28;20056;-83
2022/02/07 14:05:48;;;;;;;18.92;4.78;;;;;;;7.61;58.25;99966.56;5031678;28;20298;-81
2022/02/07 14:08:14;;;;;;;23.63;4.40;;;;;;;7.11;58.03;99798.31;5031042;28;20033;-82